Etusivu
METAR-TAF:

METAR-TAF

Lentoasemat :

Black_Hills

Spearfish, Etelä-Dakota, Yhdysvallat

Leveyspiiri: 44-29N, Pituuspiiri: 103-47W, korkeus merenpinnasta: 1188 m

Tämänhetkinen sää

Tämä raportti tehtiin 36 minuuttia sitten, kello 21.15 UTC
Tuuli 3 kn eri suunnista puuskistuen 12 kn:hen
Lämpötila 33°C
Kosteus 28%
Ilmanpaine 1019 hPa
Näkyvyys: 16.1 km
selkeää

METAR: KSPF 132115Z AUTO VRB03G12KT 10SM CLR 33/12 A3008 RMK AO2

Aika: 15:51 (21:51 UTC)


TAF: puuttuu

Säähavainnot ja -ennusteet yli 4000 lentoasemalta (METAR- ja TAF-raportit).

Käytössä olevat sääasemat on merkitty karttaan keltaisilla ja punaisilla pisteillä.

Aseta hiiri pisteen päälle nähdäksesi sääaseman nimen.

Klikkaa sitten nähdäksesi säähavainnot ja -ennusteet.

Kartan vaihtaminen: klikkaa mustalla rastilla varustettuja vihreitä pisteitä, niin voit zoomata sisään; viivalla varustettua vihreää pistettä, niin voit zoomata ulos tai vihreitä nuolia, niin pääset viereisille kartoille.


METAR-TAF: